Hlavní strana
METAR-TAF:

METAR-TAF

Letiště :

Ponta Delgada, Azory, Portugalsko

zeměpisná šířka: 37-44N, zeměpisná délka: 025-42W, výška: 71 m

Aktuální stav počasí

Zpráva byla vytvořena před 52 minutami, v 01:30 UTC
Východojihovýchodní vítr 5 kt
Teplota 14°C
Vlhkost vzduchu 88%
Tlak 1027 hPa
Viditelnost 10 km a více
Skoro jasno ve výšce 1400 ft
Polojasno ve výšce 3000 ft

METAR: LPPD 220130Z 12005KT 9999 FEW014 SCT030 14/12 Q1027

Čas: 01:22 (02:22 UTC)

Předpověď počasí

Zpráva byla vytvořena před 3 hodinami a 22 minutami, v 23:00 UTC
Předpověď platná od 22 v 00 UTC do 22 v 24 UTC
vítr z různých směrů 5 kt
Viditelnost 10 km a více
Skoro jasno ve výšce 1800 ft
Polojasno ve výšce 3000 ft
Dočasný
od 22 v 00 UTC do 22 v 24 UTC
Polojasno ve výšce 1500 ft
Změna
od 22 v 12 UTC do 22 v 15 UTC
Jihojihozápadní vítr 8 kt
Změna
od 22 v 16 UTC do 22 v 19 UTC
Západojihozápadní vítr 8 kt

TAF: LPPD 212300Z 2200/2224 VRB05KT 9999 FEW018 SCT030 TEMPO 2200/2224 SCT015 BECMG 2212/2215 21008KT BECMG 2216/2219 24008KT

Stav a předpovědi počasí z více než 4 000 letišť (zprávy METAR a TAF).

Červené a žluté tečky na mapě představují dostupné meteorologické stanice.

Když kurzor umístíte na tečku, zobrazí se název stanice.

Pak kliknutím zobrazíte stav a předpověď počasí.

Chcete-li změnit mapu, kliknutím na zelené tlačítko se znaménkem +mapu přiblížíte, kliknutím na zelené tlačítko se znaménkem – mapu oddálíte a kliknutím na zelené šipky přejdete na sousední mapy.


METAR-TAF: